createdAt,value
2023-01-10T00:02:27.660Z,99294.16
2023-01-10T00:04:56.183Z,99283.19
2023-01-10T00:07:25.153Z,99289.97
2023-01-10T00:09:53.996Z,99297.69
2023-01-10T00:12:39.988Z,99296.59
2023-01-10T00:15:11.504Z,99289.78
2023-01-10T00:17:40.429Z,99301.34
2023-01-10T00:20:10.747Z,99315.63
2023-01-10T00:22:39.307Z,99313.66
2023-01-10T00:25:08.802Z,99322.34
2023-01-10T00:27:37.801Z,99332.44
2023-01-10T00:30:14.194Z,99333.41
2023-01-10T00:32:45.382Z,99334.22
2023-01-10T00:35:14.666Z,99331.31
2023-01-10T00:37:43.370Z,99332.88
2023-01-10T00:40:13.982Z,99337.44
2023-01-10T00:43:00.135Z,99342.22
2023-01-10T00:45:30.208Z,99347.06
2023-01-10T00:48:00.577Z,99343.53
2023-01-10T00:50:29.486Z,99345.66
2023-01-10T00:52:58.324Z,99359.69
2023-01-10T00:55:26.966Z,99358.75
2023-01-10T00:57:56.755Z,99358.69
2023-01-10T01:00:25.831Z,99360.03
2023-01-10T01:02:55.974Z,99368.75
2023-01-10T01:05:27.353Z,99373.69
2023-01-10T01:07:55.835Z,99366.38
2023-01-10T01:10:27.915Z,99377.59
2023-01-10T01:12:58.663Z,99373.94
2023-01-10T01:15:28.964Z,99376.97
2023-01-10T01:17:57.663Z,99380.66
2023-01-10T01:20:28.405Z,99381.84
2023-01-10T01:22:57.050Z,99382.91
2023-01-10T01:25:26.367Z,99394.28
2023-01-10T01:27:55.254Z,99382.69
2023-01-10T01:30:24.475Z,99387.63
2023-01-10T01:32:53.361Z,99393.28
2023-01-10T01:35:22.350Z,99396.97
2023-01-10T01:37:52.589Z,99405.41
2023-01-10T01:40:22.514Z,99404.13
2023-01-10T01:42:55.764Z,99405.56
2023-01-10T01:45:42.233Z,99408.81
2023-01-10T01:48:25.255Z,99408.41
2023-01-10T01:50:59.482Z,99408.41
2023-01-10T01:53:32.776Z,99410.38
2023-01-10T01:56:05.303Z,99404.03
2023-01-10T01:58:39.822Z,99412.28
2023-01-10T02:01:08.899Z,99401.50
2023-01-10T02:03:39.338Z,99406.59
2023-01-10T02:06:09.030Z,99411.00
2023-01-10T02:08:41.278Z,99420.16
2023-01-10T02:11:11.862Z,99422.78
2023-01-10T02:13:42.356Z,99431.38
2023-01-10T02:16:11.569Z,99427.34
2023-01-10T02:18:42.808Z,99432.69
2023-01-10T02:21:44.084Z,99436.56
2023-01-10T02:24:43.491Z,99434.63
2023-01-10T02:27:16.487Z,99438.63
2023-01-10T02:30:32.686Z,99435.69
2023-01-10T02:33:07.443Z,99442.28
2023-01-10T02:36:02.625Z,99445.00
2023-01-10T02:38:40.456Z,99448.66
2023-01-10T02:41:16.503Z,99452.91
2023-01-10T02:43:48.500Z,99443.38
2023-01-10T02:46:21.548Z,99445.84
2023-01-10T02:48:52.120Z,99440.25
2023-01-10T02:51:22.554Z,99441.34
2023-01-10T02:53:55.357Z,99445.56
2023-01-10T02:56:40.551Z,99451.53
2023-01-10T02:59:39.776Z,99450.03
2023-01-10T03:02:18.393Z,99450.34
2023-01-10T03:04:54.243Z,99454.97
2023-01-10T03:07:27.627Z,99452.63
2023-01-10T03:10:00.723Z,99452.19
2023-01-10T03:12:39.255Z,99453.38
2023-01-10T03:15:09.573Z,99458.56
2023-01-10T03:17:38.362Z,99457.72
2023-01-10T03:20:10.070Z,99457.34
2023-01-10T03:22:41.113Z,99451.28
2023-01-10T03:25:13.558Z,99460.13
2023-01-10T03:27:49.608Z,99464.00
2023-01-10T03:30:22.450Z,99464.63
2023-01-10T03:32:51.491Z,99460.94
2023-01-10T03:35:24.185Z,99464.50
2023-01-10T03:37:58.407Z,99471.22
2023-01-10T03:40:32.218Z,99472.31
2023-01-10T03:43:22.031Z,99470.91
2023-01-10T03:45:53.332Z,99472.81
2023-01-10T03:48:23.626Z,99476.22
2023-01-10T03:50:53.682Z,99479.03
2023-01-10T03:53:22.578Z,99488.28
2023-01-10T03:55:51.064Z,99482.78
2023-01-10T03:58:21.953Z,99486.53
2023-01-10T04:00:51.014Z,99496.38
2023-01-10T04:03:19.922Z,99499.16
2023-01-10T04:05:48.902Z,99501.94
2023-01-10T04:08:19.559Z,99511.00
2023-01-10T04:10:49.793Z,99508.00
2023-01-10T04:13:19.228Z,99511.91
2023-01-10T04:15:48.114Z,99517.69
2023-01-10T04:18:17.300Z,99525.00
2023-01-10T04:20:46.276Z,99523.94
2023-01-10T04:23:15.262Z,99535.06
2023-01-10T04:25:50.894Z,99538.66
2023-01-10T04:28:19.803Z,99541.63
2023-01-10T04:30:48.719Z,99548.84
2023-01-10T04:33:17.697Z,99547.88
2023-01-10T04:35:49.287Z,99546.25
2023-01-10T04:38:18.667Z,99546.63
2023-01-10T04:40:54.201Z,99551.19
2023-01-10T04:43:23.431Z,99560.63
2023-01-10T04:45:52.461Z,99565.34
2023-01-10T04:48:21.366Z,99574.81
2023-01-10T04:50:53.510Z,99579.22
2023-01-10T04:53:22.793Z,99588.41
2023-01-10T04:55:53.022Z,99597.59
2023-01-10T04:58:22.165Z,99597.03
2023-01-10T05:00:52.638Z,99599.59
2023-01-10T05:03:21.585Z,99603.41
2023-01-10T05:05:51.156Z,99617.31
2023-01-10T05:08:20.032Z,99609.63
2023-01-10T05:10:48.631Z,99611.88
2023-01-10T05:13:19.029Z,99620.72
2023-01-10T05:15:48.739Z,99626.59
2023-01-10T05:18:17.620Z,99626.19
2023-01-10T05:20:46.526Z,99637.16
2023-01-10T05:23:15.430Z,99638.56
2023-01-10T05:25:43.913Z,99646.00
2023-01-10T05:28:12.760Z,99644.19
2023-01-10T05:30:43.308Z,99645.81
2023-01-10T05:33:12.217Z,99654.78
2023-01-10T05:35:41.202Z,99666.03
2023-01-10T05:38:10.101Z,99671.41
2023-01-10T05:40:38.611Z,99671.91
2023-01-10T05:43:07.551Z,99684.50
2023-01-10T05:45:36.481Z,99685.63
2023-01-10T05:48:07.445Z,99692.84
2023-01-10T05:50:36.337Z,99698.41
2023-01-10T05:53:06.002Z,99703.19
2023-01-10T05:55:34.891Z,99705.97
2023-01-10T05:58:03.895Z,99709.63
2023-01-10T06:00:32.893Z,99712.75
2023-01-10T06:03:01.866Z,99720.63
2023-01-10T06:05:32.366Z,99715.28
2023-01-10T06:08:01.034Z,99729.84
2023-01-10T06:10:29.734Z,99738.44
2023-01-10T06:12:58.666Z,99737.47
2023-01-10T06:15:28.202Z,99738.22
2023-01-10T06:17:57.303Z,99737.97
2023-01-10T06:20:30.278Z,99745.50
2023-01-10T06:23:02.419Z,99757.44
2023-01-10T06:25:31.503Z,99755.47
2023-01-10T06:28:01.797Z,99761.63
2023-01-10T06:30:30.417Z,99763.84
2023-01-10T06:33:02.749Z,99768.81
2023-01-10T06:35:31.746Z,99775.47
2023-01-10T06:38:02.113Z,99780.78
2023-01-10T06:40:31.443Z,99779.47
2023-01-10T06:43:00.497Z,99781.06
2023-01-10T06:45:31.202Z,99787.19
2023-01-10T06:48:01.219Z,99789.13
2023-01-10T06:50:30.134Z,99792.28
2023-01-10T06:52:59.562Z,99790.94
2023-01-10T06:55:30.234Z,99798.97
2023-01-10T06:57:59.478Z,99806.78
2023-01-10T07:00:29.192Z,99808.25
2023-01-10T07:03:02.829Z,99807.59
2023-01-10T07:05:32.000Z,99814.31
2023-01-10T07:08:01.640Z,99817.16
2023-01-10T07:10:31.562Z,99817.13
2023-01-10T07:13:00.157Z,99817.06
2023-01-10T07:15:30.215Z,99819.75
2023-01-10T07:17:59.277Z,99820.66
2023-01-10T07:20:28.770Z,99823.84
2023-01-10T07:22:58.256Z,99817.00
2023-01-10T07:25:30.968Z,99824.84
2023-01-10T07:28:01.314Z,99820.22
2023-01-10T07:30:29.844Z,99823.50
2023-01-10T07:32:59.237Z,99841.78
2023-01-10T07:35:28.213Z,99836.00
2023-01-10T07:37:59.706Z,99838.84
2023-01-10T07:40:28.818Z,99836.38
2023-01-10T07:42:58.434Z,99838.50
2023-01-10T07:45:30.099Z,99841.13
2023-01-10T07:47:59.199Z,99844.50
2023-01-10T07:50:29.109Z,99844.88
2023-01-10T07:52:57.675Z,99843.53
2023-01-10T07:55:27.493Z,99845.66
2023-01-10T07:57:56.420Z,99850.84
2023-01-10T08:00:25.689Z,99847.25
2023-01-10T08:02:56.642Z,99855.31
2023-01-10T08:05:25.717Z,99855.84
2023-01-10T08:07:56.307Z,99862.28
2023-01-10T08:10:26.095Z,99876.38
2023-01-10T08:12:55.567Z,99873.75
2023-01-10T08:15:24.511Z,99881.53
2023-01-10T08:17:53.396Z,99874.75
2023-01-10T08:20:25.244Z,99877.59
2023-01-10T08:22:53.875Z,99877.94
2023-01-10T08:25:22.806Z,99887.72
2023-01-10T08:27:51.584Z,99884.25
2023-01-10T08:30:20.960Z,99888.38
2023-01-10T08:32:50.787Z,99897.50
2023-01-10T08:35:19.932Z,99894.19
2023-01-10T08:37:49.804Z,99898.50
2023-01-10T08:40:18.761Z,99897.16
2023-01-10T08:42:47.600Z,99898.47
2023-01-10T08:45:16.882Z,99904.94
2023-01-10T08:47:45.761Z,99906.47
2023-01-10T08:50:14.822Z,99914.06
2023-01-10T08:52:43.283Z,99922.53
2023-01-10T08:55:13.675Z,99932.13
2023-01-10T08:57:42.642Z,99932.81
2023-01-10T09:00:13.365Z,99933.34
2023-01-10T09:02:42.354Z,99937.47
2023-01-10T09:05:22.241Z,99941.72
2023-01-10T09:07:54.968Z,99940.59
2023-01-10T09:10:25.224Z,99946.38
2023-01-10T09:12:57.326Z,99944.56
2023-01-10T09:15:27.950Z,99956.03
2023-01-10T09:17:57.249Z,99957.69
2023-01-10T09:20:27.071Z,99961.00
2023-01-10T09:22:55.589Z,99961.59
2023-01-10T09:25:26.256Z,99961.94
2023-01-10T09:27:58.976Z,99961.59
2023-01-10T09:30:28.483Z,99956.63
2023-01-10T09:32:58.672Z,99957.16
2023-01-10T09:35:29.196Z,99959.47
2023-01-10T09:37:57.548Z,99957.47
2023-01-10T09:40:35.371Z,99956.78
2023-01-10T09:43:10.372Z,99964.41
2023-01-10T09:45:44.405Z,99962.56
2023-01-10T09:48:17.569Z,99955.28
2023-01-10T09:50:52.546Z,99951.75
2023-01-10T09:53:24.132Z,99957.66
2023-01-10T09:55:56.314Z,99947.97
2023-01-10T09:58:27.827Z,99951.41
2023-01-10T10:01:00.942Z,99953.47
2023-01-10T10:03:33.112Z,99951.63
2023-01-10T10:06:11.687Z,99960.78
2023-01-10T10:08:41.964Z,99955.94
2023-01-10T10:11:24.617Z,99960.03
2023-01-10T10:13:56.951Z,99961.75
2023-01-10T10:16:32.970Z,99961.66
2023-01-10T10:19:10.241Z,99966.84
2023-01-10T10:21:44.592Z,99966.44
2023-01-10T10:24:35.790Z,99967.00
2023-01-10T10:27:14.123Z,99971.22
2023-01-10T10:30:01.939Z,99979.66
2023-01-10T10:32:43.130Z,99975.09
2023-01-10T10:35:15.805Z,99971.97
2023-01-10T10:37:47.433Z,99979.03
2023-01-10T10:40:20.322Z,99978.13
2023-01-10T10:42:53.540Z,99980.53
2023-01-10T10:45:26.230Z,99986.16
2023-01-10T10:48:00.508Z,99979.50
2023-01-10T10:50:33.117Z,99983.34
2023-01-10T10:53:02.535Z,99993.13
2023-01-10T10:55:34.855Z,99991.78
2023-01-10T10:58:06.302Z,99994.91
2023-01-10T11:00:36.047Z,99992.50
2023-01-10T11:03:18.256Z,99998.22
2023-01-10T11:05:50.232Z,99988.50
2023-01-10T11:08:20.033Z,99990.16
2023-01-10T11:10:50.484Z,99984.88
2023-01-10T11:13:28.615Z,99996.47
2023-01-10T11:15:57.595Z,100001.19
2023-01-10T11:18:28.396Z,100002.09
2023-01-10T11:21:00.372Z,100007.44
2023-01-10T11:23:39.331Z,100015.72
2023-01-10T11:26:11.271Z,100028.00
2023-01-10T11:28:41.502Z,100033.88
2023-01-10T11:31:10.564Z,100030.75
2023-01-10T11:33:40.342Z,100041.88
2023-01-10T11:36:12.970Z,100040.22
2023-01-10T11:38:41.960Z,100049.00
2023-01-10T11:41:27.349Z,100045.84
2023-01-10T11:44:17.005Z,100051.00
2023-01-10T11:46:46.373Z,100056.00
2023-01-10T11:49:19.922Z,100052.97
2023-01-10T11:51:50.321Z,100051.50
2023-01-10T11:54:21.795Z,100055.28
2023-01-10T11:56:56.806Z,100053.25
2023-01-10T11:59:27.961Z,100057.59
2023-01-10T12:02:00.683Z,100061.91
2023-01-10T12:04:31.849Z,100070.88
2023-01-10T12:07:03.303Z,100070.25
2023-01-10T12:09:41.015Z,100075.22
2023-01-10T12:12:21.971Z,100082.44
2023-01-10T12:14:53.044Z,100082.78
2023-01-10T12:17:26.542Z,100079.09
2023-01-10T12:19:58.509Z,100093.19
2023-01-10T12:22:32.208Z,100090.19
2023-01-10T12:25:01.846Z,100097.72
2023-01-10T12:27:30.984Z,100099.56
2023-01-10T12:30:06.287Z,100109.44
2023-01-10T12:32:40.071Z,100108.22
2023-01-10T12:35:13.602Z,100109.19
2023-01-10T12:37:43.978Z,100116.50
2023-01-10T12:40:16.941Z,100115.09
2023-01-10T12:43:13.106Z,100122.47
2023-01-10T12:45:47.244Z,100131.09
2023-01-10T12:48:22.346Z,100126.94
2023-01-10T12:50:54.097Z,100124.31
2023-01-10T12:53:30.648Z,100128.28
2023-01-10T12:56:01.988Z,100129.06
2023-01-10T12:58:37.566Z,100133.28
2023-01-10T13:01:08.748Z,100140.53
2023-01-10T13:03:37.844Z,100141.06
2023-01-10T13:06:07.150Z,100143.13
2023-01-10T13:08:37.221Z,100149.69
2023-01-10T13:11:09.520Z,100151.03
2023-01-10T13:13:40.477Z,100157.88
2023-01-10T13:16:34.452Z,100163.19
2023-01-10T13:19:06.521Z,100163.00
2023-01-10T13:21:36.323Z,100169.34
2023-01-10T13:24:06.910Z,100177.19
2023-01-10T13:26:48.686Z,100180.84
2023-01-10T13:29:20.410Z,100184.16
2023-01-10T13:31:57.382Z,100189.84
2023-01-10T13:34:29.067Z,100207.31
2023-01-10T13:37:01.598Z,100200.47
2023-01-10T13:39:34.435Z,100207.81
2023-01-10T13:42:44.941Z,100204.00
2023-01-10T13:45:26.407Z,100202.16
2023-01-10T13:48:27.696Z,100208.78
2023-01-10T13:51:17.945Z,100212.78
2023-01-10T13:53:54.998Z,100211.47
2023-01-10T13:56:34.523Z,100214.47
2023-01-10T13:59:21.380Z,100218.13
2023-01-10T14:02:11.886Z,100222.44
2023-01-10T14:04:47.536Z,100231.41
2023-01-10T14:07:23.597Z,100230.91
2023-01-10T14:09:53.235Z,100237.06
2023-01-10T14:12:26.686Z,100238.22
2023-01-10T14:15:00.141Z,100243.03
2023-01-10T14:17:30.598Z,100249.34
2023-01-10T14:20:05.005Z,100252.84
2023-01-10T14:22:35.483Z,100250.88
2023-01-10T14:25:06.347Z,100246.53
2023-01-10T14:27:46.507Z,100242.22
2023-01-10T14:30:20.416Z,100250.03
2023-01-10T14:32:52.385Z,100251.84
2023-01-10T14:35:24.048Z,100254.00
2023-01-10T14:37:54.394Z,100264.97
2023-01-10T14:40:28.427Z,100265.97
2023-01-10T14:43:00.096Z,100264.59
2023-01-10T14:45:36.548Z,100271.25
2023-01-10T14:48:20.997Z,100266.84
2023-01-10T14:50:51.328Z,100262.34
2023-01-10T14:53:30.085Z,100264.19
2023-01-10T14:55:59.252Z,100267.25
2023-01-10T14:58:28.269Z,100268.09
2023-01-10T15:00:58.386Z,100274.22
2023-01-10T15:03:27.237Z,100271.31
2023-01-10T15:05:59.081Z,100275.19
2023-01-10T15:08:30.398Z,100275.25
2023-01-10T15:11:04.208Z,100285.75
2023-01-10T15:13:35.950Z,100279.28
2023-01-10T15:16:07.888Z,100282.09
2023-01-10T15:18:39.406Z,100287.44
2023-01-10T15:21:12.962Z,100276.81
2023-01-10T15:23:43.613Z,100286.88
2023-01-10T15:26:16.364Z,100287.47
2023-01-10T15:28:48.691Z,100299.16
2023-01-10T15:31:18.413Z,100304.47
2023-01-10T15:33:56.385Z,100310.47
2023-01-10T15:36:29.466Z,100312.19
2023-01-10T15:38:58.388Z,100309.94
2023-01-10T15:41:28.113Z,100316.22
2023-01-10T15:43:56.511Z,100317.16
2023-01-10T15:46:27.302Z,100318.31
2023-01-10T15:48:58.964Z,100321.91
2023-01-10T15:51:31.574Z,100328.69
2023-01-10T15:54:05.422Z,100345.38
2023-01-10T15:56:37.897Z,100346.34
2023-01-10T15:59:07.737Z,100341.81
2023-01-10T16:01:36.455Z,100340.38
2023-01-10T16:04:06.482Z,100345.47
2023-01-10T16:06:37.991Z,100346.06
2023-01-10T16:09:08.643Z,100348.66
2023-01-10T16:11:58.209Z,100354.22
2023-01-10T16:14:30.484Z,100358.66
2023-01-10T16:16:58.988Z,100351.22
2023-01-10T16:19:28.321Z,100357.06
2023-01-10T16:21:59.902Z,100350.00
2023-01-10T16:24:30.445Z,100350.47
2023-01-10T16:27:00.650Z,100347.63
2023-01-10T16:29:29.522Z,100355.22
2023-01-10T16:31:58.944Z,100365.53
2023-01-10T16:34:27.446Z,100356.97
2023-01-10T16:36:56.220Z,100361.66
2023-01-10T16:39:26.520Z,100362.97
2023-01-10T16:42:12.581Z,100361.09
2023-01-10T16:44:41.757Z,100368.66
2023-01-10T16:47:10.583Z,100358.13
2023-01-10T16:49:41.084Z,100358.81
2023-01-10T16:52:14.384Z,100355.31
2023-01-10T16:54:44.741Z,100365.25
2023-01-10T16:57:14.967Z,100351.16
2023-01-10T16:59:43.989Z,100364.81
2023-01-10T17:02:18.944Z,100360.63
2023-01-10T17:04:48.055Z,100360.69
2023-01-10T17:07:16.823Z,100366.06
2023-01-10T17:09:47.318Z,100382.38
2023-01-10T17:12:19.740Z,100383.97
2023-01-10T17:14:49.495Z,100403.03
2023-01-10T17:17:19.284Z,100409.97
2023-01-10T17:19:47.875Z,100408.53
2023-01-10T17:22:16.829Z,100424.03
2023-01-10T17:24:47.217Z,100419.84
2023-01-10T17:27:16.575Z,100422.66
2023-01-10T17:29:45.409Z,100413.53
2023-01-10T17:32:14.339Z,100411.94
2023-01-10T17:34:42.896Z,100411.50
2023-01-10T17:37:11.742Z,100418.47
2023-01-10T17:39:40.631Z,100420.53
2023-01-10T17:42:11.277Z,100424.31
2023-01-10T17:44:39.832Z,100430.38
2023-01-10T17:47:09.322Z,100429.44
2023-01-10T17:49:37.788Z,100437.00
2023-01-10T17:52:06.692Z,100431.94
2023-01-10T17:54:36.349Z,100429.63
2023-01-10T17:57:05.523Z,100446.47
2023-01-10T17:59:36.706Z,100442.59
2023-01-10T18:02:06.106Z,100458.81
2023-01-10T18:04:34.676Z,100459.19
2023-01-10T18:07:03.535Z,100472.84
2023-01-10T18:09:32.340Z,100465.34
2023-01-10T18:12:01.238Z,100457.13
2023-01-10T18:14:39.099Z,100458.66
2023-01-10T18:17:11.407Z,100466.34
2023-01-10T18:19:40.287Z,100460.28
2023-01-10T18:22:22.896Z,100456.94
2023-01-10T18:24:52.950Z,100463.63
2023-01-10T18:27:22.010Z,100475.66
2023-01-10T18:29:51.154Z,100478.25
2023-01-10T18:32:22.630Z,100480.25
2023-01-10T18:34:51.278Z,100481.34
2023-01-10T18:37:20.245Z,100485.97
2023-01-10T18:39:49.719Z,100491.81
2023-01-10T18:42:18.623Z,100493.38
2023-01-10T18:44:47.695Z,100481.78
2023-01-10T18:47:16.512Z,100484.88
2023-01-10T18:49:47.783Z,100489.41
2023-01-10T18:52:17.410Z,100498.81
2023-01-10T18:54:47.635Z,100511.34
2023-01-10T18:57:16.481Z,100518.66
2023-01-10T18:59:45.416Z,100516.59
2023-01-10T19:02:15.413Z,100522.19
2023-01-10T19:04:46.358Z,100516.75
2023-01-10T19:07:16.736Z,100525.69
2023-01-10T19:09:49.608Z,100519.00
2023-01-10T19:12:18.546Z,100521.66
2023-01-10T19:14:47.429Z,100520.25
2023-01-10T19:17:18.416Z,100525.00
2023-01-10T19:19:47.087Z,100530.97
2023-01-10T19:22:18.726Z,100525.66
2023-01-10T19:24:47.675Z,100526.78
2023-01-10T19:27:18.429Z,100528.47
2023-01-10T19:29:50.052Z,100528.59
2023-01-10T19:32:19.059Z,100522.91
2023-01-10T19:34:47.586Z,100529.03
2023-01-10T19:37:20.660Z,100522.88
2023-01-10T19:39:50.940Z,100532.09
2023-01-10T19:42:19.812Z,100535.97
2023-01-10T19:44:48.849Z,100528.19
2023-01-10T19:47:20.710Z,100538.09
2023-01-10T19:49:49.343Z,100545.94
2023-01-10T19:52:19.708Z,100549.59
2023-01-10T19:54:50.812Z,100549.28
2023-01-10T19:57:19.690Z,100555.75
2023-01-10T19:59:51.841Z,100567.78
2023-01-10T20:02:20.690Z,100558.28
2023-01-10T20:04:49.497Z,100550.88
2023-01-10T20:07:20.853Z,100549.00
2023-01-10T20:09:49.932Z,100546.88
2023-01-10T20:12:18.813Z,100541.41
2023-01-10T20:14:47.671Z,100550.13
2023-01-10T20:17:16.550Z,100555.91
2023-01-10T20:19:45.112Z,100557.50
2023-01-10T20:22:13.915Z,100558.56
2023-01-10T20:24:45.331Z,100566.97
2023-01-10T20:27:14.170Z,100565.50
2023-01-10T20:29:45.888Z,100563.78
2023-01-10T20:32:15.260Z,100563.66
2023-01-10T20:34:44.744Z,100576.31
2023-01-10T20:37:14.332Z,100569.91
2023-01-10T20:39:44.786Z,100569.19
2023-01-10T20:42:13.703Z,100574.75
2023-01-10T20:44:42.461Z,100572.22
2023-01-10T20:47:11.276Z,100575.72
2023-01-10T20:49:39.818Z,100573.63
2023-01-10T20:52:10.005Z,100580.28
2023-01-10T20:54:38.993Z,100576.75
2023-01-10T20:57:09.291Z,100577.44
2023-01-10T20:59:39.203Z,100582.13
2023-01-10T21:02:08.494Z,100573.72
2023-01-10T21:04:37.217Z,100581.00
2023-01-10T21:07:06.898Z,100584.59
2023-01-10T21:09:35.805Z,100585.47
2023-01-10T21:12:21.747Z,100593.84
2023-01-10T21:14:53.910Z,100591.72
2023-01-10T21:17:25.401Z,100590.47
2023-01-10T21:19:53.856Z,100593.22
2023-01-10T21:22:22.691Z,100584.34
2023-01-10T21:24:52.959Z,100585.00
2023-01-10T21:27:21.475Z,100588.56
2023-01-10T21:29:50.308Z,100594.47
2023-01-10T21:32:20.657Z,100594.16
2023-01-10T21:34:49.253Z,100598.38
2023-01-10T21:37:18.223Z,100599.72
2023-01-10T21:39:47.011Z,100606.66
2023-01-10T21:42:33.095Z,100590.97
2023-01-10T21:45:02.030Z,100599.50
2023-01-10T21:47:32.325Z,100606.81
2023-01-10T21:50:01.378Z,100601.28
2023-01-10T21:52:29.838Z,100600.66
2023-01-10T21:54:59.019Z,100616.00
2023-01-10T21:57:28.370Z,100614.09
2023-01-10T21:59:57.142Z,100611.38
2023-01-10T22:02:27.433Z,100618.44
2023-01-10T22:04:58.179Z,100622.19
2023-01-10T22:07:28.841Z,100620.06
2023-01-10T22:09:57.696Z,100614.13
2023-01-10T22:12:27.925Z,100615.91
2023-01-10T22:14:56.610Z,100620.72
2023-01-10T22:17:26.245Z,100617.28
2023-01-10T22:19:57.265Z,100616.03
2023-01-10T22:22:26.417Z,100612.25
2023-01-10T22:24:55.277Z,100618.06
2023-01-10T22:27:24.316Z,100613.13
2023-01-10T22:29:53.269Z,100616.88
2023-01-10T22:32:22.335Z,100616.91
2023-01-10T22:34:50.903Z,100613.25
2023-01-10T22:37:21.258Z,100612.94
2023-01-10T22:39:51.012Z,100618.56
2023-01-10T22:42:19.968Z,100614.06
2023-01-10T22:44:49.095Z,100609.16
2023-01-10T22:47:18.015Z,100604.47
2023-01-10T22:49:47.054Z,100615.75
2023-01-10T22:52:15.961Z,100612.91
2023-01-10T22:54:46.413Z,100615.69
2023-01-10T22:57:15.666Z,100629.78
2023-01-10T22:59:44.572Z,100633.28
2023-01-10T23:02:14.208Z,100627.56
2023-01-10T23:04:42.931Z,100628.44
2023-01-10T23:07:13.079Z,100633.22
2023-01-10T23:09:41.770Z,100639.78
2023-01-10T23:12:12.048Z,100639.44
2023-01-10T23:14:40.574Z,100637.38
2023-01-10T23:17:09.350Z,100638.59
2023-01-10T23:19:37.675Z,100639.75
2023-01-10T23:22:06.381Z,100638.75
2023-01-10T23:24:35.061Z,100645.13
2023-01-10T23:27:03.858Z,100652.63
2023-01-10T23:29:33.957Z,100640.41
2023-01-10T23:32:02.832Z,100639.59
2023-01-10T23:34:31.455Z,100630.63
2023-01-10T23:37:00.191Z,100639.88
2023-01-10T23:39:30.098Z,100629.47
2023-01-10T23:41:58.859Z,100637.06
2023-01-10T23:44:28.885Z,100630.41
2023-01-10T23:47:00.000Z,100634.44
2023-01-10T23:49:28.757Z,100639.72
2023-01-10T23:51:57.498Z,100645.44
2023-01-10T23:54:26.313Z,100643.06
2023-01-10T23:56:55.054Z,100640.44
2023-01-10T23:59:24.029Z,100638.97
